Time;durP1;ratioP1;P1;durP2;ratioP2;P2;SDS_P1;SDS_P2;PMS_P1;PMS_P2;Temp;Humidity;BMP_temperature;BMP_pressure;BME280_temperature;BME280_humidity;BME280_pressure;Samples;Min_cycle;Max_cycle;Signal;HPM_P1;HPM_P2
2021/05/11 00:01:05;;;;;;;;;;;;;;;16.35;57.68;99283.72;5056338;28;19932;-70
2021/05/11 00:03:36;;;;;;;;;;;;;;;16.25;57.85;99282.28;5056224;28;19971;-71
2021/05/11 00:06:08;;;;;;;;;;;;;;;16.17;57.98;99279.13;5056171;28;19928;-71
2021/05/11 00:08:39;;;;;;;;;;;;;;;16.12;58.48;99280.97;5055713;28;20389;-70
2021/05/11 00:11:11;;;;;;;;;;;;;;;16.04;58.21;99276.91;5056089;28;19960;-71
2021/05/11 00:13:40;;;;;;;;;;;;;;;16.00;58.58;99267.56;5053517;28;19924;-70
2021/05/11 00:16:13;;;;;;;;;;;;;;;15.91;58.72;99267.00;5055900;28;20382;-71
2021/05/11 00:18:42;;;;;;;;;;;;;;;15.87;58.84;99265.41;5056106;28;19932;-70
2021/05/11 00:21:10;;;;;;;;;;;;;;;15.81;58.92;99261.25;5055760;28;19928;-70
2021/05/11 00:23:39;;;;;;;;;;;;;;;15.74;59.56;99264.91;5055757;28;19971;-70
2021/05/11 00:26:07;;;;;;;;;;;;;;;15.67;59.47;99265.97;5055586;28;20492;-70
2021/05/11 00:28:39;;;;;;;;;;;;;;;15.61;59.96;99258.44;5055434;28;20039;-70
2021/05/11 00:31:11;;;;;;;;;;;;;;;15.56;59.96;99260.28;5055548;28;19925;-70
2021/05/11 00:33:42;;;;;;;;;;;;;;;15.48;60.66;99259.63;5054623;28;19925;-71
2021/05/11 00:36:13;;;;;;;;;;;;;;;15.42;60.44;99257.22;5055520;28;19931;-70
2021/05/11 00:38:41;;;;;;;;;;;;;;;15.40;60.57;99261.56;5055534;28;19925;-70
2021/05/11 00:41:12;;;;;;;;;;;;;;;15.35;60.72;99260.84;5054173;28;19925;-70
2021/05/11 00:43:44;;;;;;;;;;;;;;;15.31;61.00;99249.78;5055462;28;19974;-70
2021/05/11 00:46:16;;;;;;;;;;;;;;;15.29;60.91;99250.69;5054680;28;19925;-71
2021/05/11 00:48:47;;;;;;;;;;;;;;;15.31;60.98;99259.22;5055136;28;19960;-70
2021/05/11 00:51:18;;;;;;;;;;;;;;;15.29;61.44;99266.97;5055212;28;19968;-71
2021/05/11 00:54:06;;;;;;;;;;;;;;;15.26;61.60;99253.38;4510663;22;20305;-65
2021/05/11 00:56:34;;;;;;;;;;;;;;;15.25;61.49;99255.09;5075143;28;19931;-65
2021/05/11 00:59:13;;;;;;;;;;;;;;;15.25;61.77;99261.97;5075071;28;19958;-63
2021/05/11 01:01:41;;;;;;;;;;;;;;;15.20;61.87;99261.22;5075045;28;20407;-63
2021/05/11 01:04:12;;;;;;;;;;;;;;;15.15;62.16;99263.06;5074979;28;19924;-63
2021/05/11 01:06:43;;;;;;;;;;;;;;;15.10;62.15;99264.91;5075010;28;19970;-63
2021/05/11 01:09:12;;;;;;;;;;;;;;;15.06;62.25;99246.19;5074603;28;20270;-63
2021/05/11 01:11:40;;;;;;;;;;;;;;;15.04;62.27;99244.53;5075096;28;19924;-63
2021/05/11 01:14:10;;;;;;;;;;;;;;;15.01;62.63;99250.59;5087113;28;19924;-63
2021/05/11 01:16:43;;;;;;;;;;;;;;;14.98;62.73;99245.50;5095017;28;20377;-63
2021/05/11 01:19:18;;;;;;;;;;;;;;;14.94;62.52;99243.91;5095041;28;19973;-63
2021/05/11 01:21:53;;;;;;;;;;;;;;;14.92;62.88;99244.84;5093703;28;19931;-63
2021/05/11 01:24:56;;;;;;;;;;;;;;;14.91;63.06;99249.13;4227265;28;20282;-69
2021/05/11 01:27:35;;;;;;;;;;;;;;;14.88;62.99;99244.06;4975987;28;19933;-70
2021/05/11 01:30:23;;;;;;;;;;;;;;;14.91;62.67;99238.00;4974779;28;19934;-70
2021/05/11 01:33:13;;;;;;;;;;;;;;;14.93;63.12;99236.22;4976129;28;20363;-70
2021/05/11 01:46:38;;;;;;;;;;;;;;;14.85;62.87;99228.75;4974544;28;19932;-70
2021/05/11 01:49:13;;;;;;;;;;;;;;;14.82;63.59;99220.25;4975547;28;19933;-70
2021/05/11 01:54:38;;;;;;;;;;;;;;;14.81;63.47;99226.25;4975578;28;19973;-70
2021/05/11 02:24:08;;;;;;;;;;;;;;;14.47;64.22;99213.41;4974972;28;20432;-71
2021/05/11 02:26:39;;;;;;;;;;;;;;;14.44;64.31;99227.19;4975313;28;20379;-70
2021/05/11 02:29:11;;;;;;;;;;;;;;;14.42;64.19;99218.63;4974937;28;20376;-70
2021/05/11 02:31:39;;;;;;;;;;;;;;;14.39;64.36;99223.88;4974904;28;19937;-70
2021/05/11 02:34:10;;;;;;;;;;;;;;;14.39;64.42;99221.31;4975201;28;19959;-70
2021/05/11 02:36:41;;;;;;;;;;;;;;;14.40;64.54;99220.41;4975234;28;19926;-70
2021/05/11 02:39:12;;;;;;;;;;;;;;;14.42;64.32;99223.78;4974932;28;20301;-71
2021/05/11 02:41:41;;;;;;;;;;;;;;;14.42;64.23;99216.06;4975433;28;20386;-70
2021/05/11 02:44:11;;;;;;;;;;;;;;;14.40;64.50;99229.81;4975060;28;19965;-70
2021/05/11 02:46:42;;;;;;;;;;;;;;;14.38;64.11;99222.16;4975066;28;19926;-71
2021/05/11 02:49:16;;;;;;;;;;;;;;;14.37;64.66;99225.59;4974848;28;19926;-71
2021/05/11 02:51:47;;;;;;;;;;;;;;;14.34;64.44;99225.69;4975081;28;20372;-70
2021/05/11 02:54:18;;;;;;;;;;;;;;;14.26;64.56;99222.41;4975042;28;19934;-70
2021/05/11 02:56:49;;;;;;;;;;;;;;;14.22;64.94;99217.41;4975008;28;19964;-70
2021/05/11 02:59:22;;;;;;;;;;;;;;;14.20;64.75;99227.72;4974996;28;20395;-70
2021/05/11 03:01:54;;;;;;;;;;;;;;;14.20;64.79;99226.84;4974693;28;20273;-70
2021/05/11 03:04:22;;;;;;;;;;;;;;;14.19;65.07;99231.13;4974911;28;19932;-69
2021/05/11 03:06:51;;;;;;;;;;;;;;;14.20;65.29;99232.00;4974929;28;19973;-71
2021/05/11 03:09:22;;;;;;;;;;;;;;;14.21;64.88;99239.66;4975078;28;19926;-70
2021/05/11 03:11:55;;;;;;;;;;;;;;;14.18;65.02;99234.56;4978788;28;20017;-70
2021/05/11 03:14:26;;;;;;;;;;;;;;;14.19;64.88;99220.88;4978332;28;19926;-70
2021/05/11 03:16:57;;;;;;;;;;;;;;;14.21;65.18;99234.50;4978623;28;19926;-70
2021/05/11 03:19:29;;;;;;;;;;;;;;;14.18;65.04;99226.88;4978018;28;20284;-70
2021/05/11 03:22:00;;;;;;;;;;;;;;;14.16;65.38;99220.94;4978253;28;19933;-70
2021/05/11 03:24:28;;;;;;;;;;;;;;;14.15;65.35;99223.56;4968846;28;20360;-70
2021/05/11 03:26:59;;;;;;;;;;;;;;;14.16;65.29;99220.94;4978113;28;19972;-71
2021/05/11 03:29:31;;;;;;;;;;;;;;;14.19;65.21;99218.31;4977846;28;19927;-71
2021/05/11 03:32:02;;;;;;;;;;;;;;;14.23;65.08;99217.34;4978064;28;20077;-71
2021/05/11 03:34:34;;;;;;;;;;;;;;;14.26;65.42;99226.69;4977940;28;19930;-71
2021/05/11 03:37:06;;;;;;;;;;;;;;;14.31;65.16;99230.91;4977868;28;19926;-70
2021/05/11 03:39:38;;;;;;;;;;;;;;;14.33;65.25;99223.16;4977923;28;19926;-71
2021/05/11 03:42:11;;;;;;;;;;;;;;;14.32;65.12;99232.59;4977286;28;19930;-70
2021/05/11 03:44:45;;;;;;;;;;;;;;;14.32;65.37;99227.47;4977748;28;19926;-71
2021/05/11 03:47:18;;;;;;;;;;;;;;;14.35;65.17;99232.50;4976856;28;19926;-71
2021/05/11 03:49:47;;;;;;;;;;;;;;;14.35;65.05;99211.97;4977410;28;19926;-70
2021/05/11 03:52:18;;;;;;;;;;;;;;;14.39;65.18;99212.75;4977569;28;19955;-70
2021/05/11 03:54:50;;;;;;;;;;;;;;;14.39;65.00;99226.44;4978457;28;20323;-70
2021/05/11 03:57:18;;;;;;;;;;;;;;;14.46;64.77;99220.28;4977880;28;20380;-70
2021/05/11 03:59:50;;;;;;;;;;;;;;;14.51;65.12;99215.88;4977215;28;20295;-70
2021/05/11 04:02:26;;;;;;;;;;;;;;;14.54;64.73;99213.22;4977512;28;20369;-70
2021/05/11 04:05:06;;;;;;;;;;;;;;;14.60;64.87;99220.78;4977211;28;19926;-70
2021/05/11 04:07:44;;;;;;;;;;;;;;;14.64;64.49;99217.25;4992401;28;19926;-70
2021/05/11 04:10:18;;;;;;;;;;;;;;;14.67;64.77;99209.47;4977014;28;19932;-70
2021/05/11 04:18:12;;;;;;;;;;;;;;;14.89;64.75;99222.63;4977522;28;19994;-70
2021/05/11 04:20:40;;;;;;;;;;;;;;;15.00;64.82;99219.75;4977007;28;20325;-70
2021/05/11 04:23:09;;;;;;;;;;;;;;;15.14;64.50;99212.56;4976072;28;19981;-70
2021/05/11 04:25:38;;;;;;;;;;;;;;;15.26;64.38;99214.81;4977067;28;19926;-70
2021/05/11 04:28:07;;;;;;;;;;;;;;;15.41;63.93;99219.50;4976870;28;19933;-71
2021/05/11 04:30:37;;;;;;;;;;;;;;;15.57;63.89;99215.69;4976922;28;19937;-71
2021/05/11 04:33:05;;;;;;;;;;;;;;;15.70;63.59;99218.72;4976885;28;20029;-71
2021/05/11 04:35:34;;;;;;;;;;;;;;;15.86;63.34;99217.41;4976728;28;19926;-71
2021/05/11 04:38:02;;;;;;;;;;;;;;;16.02;63.38;99214.31;4976745;28;19970;-71
2021/05/11 04:40:34;;;;;;;;;;;;;;;16.28;63.09;99222.97;4976923;28;19949;-71
2021/05/11 04:43:05;;;;;;;;;;;;;;;16.48;62.69;99223.19;4976698;28;19977;-71
2021/05/11 04:45:34;;;;;;;;;;;;;;;16.66;62.01;99222.63;4977295;28;19930;-71
2021/05/11 04:48:07;;;;;;;;;;;;;;;16.86;61.63;99217.66;4976355;28;19972;-71
2021/05/11 04:50:36;;;;;;;;;;;;;;;17.06;61.47;99222.16;4976850;28;19973;-71
2021/05/11 04:53:06;;;;;;;;;;;;;;;17.19;61.08;99211.34;4976560;28;19926;-71
2021/05/11 04:55:34;;;;;;;;;;;;;;;17.29;60.90;99220.47;4976451;28;19934;-70
2021/05/11 04:58:03;;;;;;;;;;;;;;;17.39;60.96;99218.41;4975089;28;19970;-71
2021/05/11 05:00:35;;;;;;;;;;;;;;;17.49;61.01;99216.31;4976587;28;19934;-71
2021/05/11 05:03:06;;;;;;;;;;;;;;;17.61;60.98;99221.06;4991408;28;19926;-71
2021/05/11 05:05:36;;;;;;;;;;;;;;;17.76;60.78;99215.31;4976350;28;19957;-71
2021/05/11 05:08:05;;;;;;;;;;;;;;;17.88;60.83;99209.72;4976192;28;20017;-71
2021/05/11 05:10:33;;;;;;;;;;;;;;;17.98;60.61;99221.38;4975789;28;19984;-70
2021/05/11 05:13:02;;;;;;;;;;;;;;;18.16;60.56;99220.69;4970582;28;19937;-70
2021/05/11 05:15:31;;;;;;;;;;;;;;;18.38;60.28;99218.91;4955826;28;20348;-71
2021/05/11 05:18:00;;;;;;;;;;;;;;;18.54;60.01;99207.13;4956528;28;19926;-71
2021/05/11 05:20:28;;;;;;;;;;;;;;;18.76;59.59;99211.41;4971736;28;19927;-71
2021/05/11 05:22:58;;;;;;;;;;;;;;;18.88;59.04;99216.91;4955772;28;20018;-71
2021/05/11 05:25:28;;;;;;;;;;;;;;;19.07;58.88;99216.97;4959040;28;19930;-71
2021/05/11 05:28:05;;;;;;;;;;;;;;;19.26;58.29;99218.72;4975857;28;20288;-71
2021/05/11 05:30:34;;;;;;;;;;;;;;;19.50;57.51;99219.41;4975508;28;20393;-71
2021/05/11 05:33:03;;;;;;;;;;;;;;;19.74;56.47;99222.66;4975813;28;19933;-71
2021/05/11 05:35:35;;;;;;;;;;;;;;;20.00;54.50;99225.75;4975863;28;19926;-71
2021/05/11 05:38:04;;;;;;;;;;;;;;;20.27;53.23;99215.03;4968418;28;19937;-71
2021/05/11 05:40:38;;;;;;;;;;;;;;;20.52;52.56;99220.69;4968107;28;19931;-71
2021/05/11 05:43:07;;;;;;;;;;;;;;;20.71;52.50;99216.28;4976064;28;20273;-71
2021/05/11 05:45:36;;;;;;;;;;;;;;;20.84;52.21;99211.34;4974915;28;20290;-71
2021/05/11 05:48:04;;;;;;;;;;;;;;;20.98;52.26;99212.34;4975451;28;19949;-69
2021/05/11 05:50:33;;;;;;;;;;;;;;;21.20;51.16;99210.38;4975100;28;19980;-70
2021/05/11 05:53:03;;;;;;;;;;;;;;;21.49;49.43;99205.41;4975552;28;19926;-70
2021/05/11 05:55:33;;;;;;;;;;;;;;;21.74;48.44;99211.00;4975514;28;19968;-70
2021/05/11 05:58:02;;;;;;;;;;;;;;;21.94;47.23;99202.97;4975215;28;19926;-70
2021/05/11 06:00:34;;;;;;;;;;;;;;;22.10;46.49;99211.59;4975953;28;19926;-72
2021/05/11 06:03:06;;;;;;;;;;;;;;;22.27;44.80;99208.91;4973233;28;19930;-71
2021/05/11 06:05:35;;;;;;;;;;;;;;;22.34;44.88;99210.25;4968225;28;20394;-70
2021/05/11 06:08:04;;;;;;;;;;;;;;;22.50;43.86;99218.88;4975264;28;19926;-70
2021/05/11 06:10:33;;;;;;;;;;;;;;;22.64;43.55;99211.16;4975033;28;19977;-72
2021/05/11 06:13:07;;;;;;;;;;;;;;;22.73;43.70;99214.13;4975293;28;19977;-70
2021/05/11 06:18:24;;;;;;;;;;;;;;;23.05;43.13;99202.69;4975316;28;19927;-71
2021/05/11 06:20:53;;;;;;;;;;;;;;;23.20;42.60;99205.22;4975549;28;19954;-70
2021/05/11 06:23:40;;;;;;;;;;;;;;;23.29;42.04;99203.84;4827664;23;20960;-73
2021/05/11 06:26:10;;;;;;;;;;;;;;;23.34;41.19;99204.41;4936128;29;19926;-68
2021/05/11 06:28:40;;;;;;;;;;;;;;;23.41;41.38;99207.50;4936811;29;19946;-68
2021/05/11 06:31:09;;;;;;;;;;;;;;;23.49;41.30;99200.88;4936547;29;19927;-66
2021/05/11 06:33:38;;;;;;;;;;;;;;;23.55;40.86;99205.75;4936647;29;19927;-68
2021/05/11 06:36:07;;;;;;;;;;;;;;;23.64;40.64;99205.16;4954878;29;19926;-68
2021/05/11 06:38:36;;;;;;;;;;;;;;;23.67;41.06;99199.78;4955727;29;19927;-69
2021/05/11 06:41:04;;;;;;;;;;;;;;;23.73;40.79;99203.78;4944960;28;19926;-68
2021/05/11 06:43:37;;;;;;;;;;;;;;;23.83;40.55;99203.09;4936646;29;19945;-68
2021/05/11 06:49:13;;;;;;;;;;;;;;;23.98;40.58;99204.75;4942439;29;19954;-69
2021/05/11 06:54:19;;;;;;;;;;;;;;;24.18;40.62;99210.50;4959270;29;20312;-68
2021/05/11 06:56:48;;;;;;;;;;;;;;;24.21;40.67;99202.50;4958945;28;19927;-69
2021/05/11 06:59:22;;;;;;;;;;;;;;;24.25;40.51;99196.13;4959551;29;20300;-68
2021/05/11 07:01:51;;;;;;;;;;;;;;;24.33;40.79;99193.88;4959545;28;19933;-68
2021/05/11 07:04:23;;;;;;;;;;;;;;;24.32;40.66;99197.41;4959469;29;20420;-68
2021/05/11 07:06:53;;;;;;;;;;;;;;;24.36;40.34;99193.66;4958750;29;20315;-68
2021/05/11 07:09:59;;;;;;;;;;;;;;;24.34;39.98;99211.19;4958947;29;19969;-70
2021/05/11 07:15:13;;;;;;;;;;;;;;;24.28;40.68;99212.41;4959037;28;19939;-69
2021/05/11 07:17:41;;;;;;;;;;;;;;;24.25;41.21;99201.34;4958882;29;19939;-71
2021/05/11 07:20:11;;;;;;;;;;;;;;;24.23;41.82;99209.28;4958903;28;20281;-69
2021/05/11 07:22:39;;;;;;;;;;;;;;;24.29;40.78;99214.09;4958961;29;19968;-69
2021/05/11 07:25:09;;;;;;;;;;;;;;;24.35;41.25;99215.50;4958450;29;20009;-69
2021/05/11 07:30:31;;;;;;;;;;;;;;;24.36;40.67;99209.31;4958456;29;19933;-69
2021/05/11 07:33:05;;;;;;;;;;;;;;;24.33;41.99;99209.53;4959073;28;19949;-68
2021/05/11 07:35:40;;;;;;;;;;;;;;;24.36;40.98;99215.38;4958674;28;19927;-68
2021/05/11 07:38:08;;;;;;;;;;;;;;;24.38;39.99;99203.06;4958358;28;19926;-68
2021/05/11 07:40:37;;;;;;;;;;;;;;;24.49;39.98;99205.00;4958491;29;20013;-68
2021/05/11 07:43:06;;;;;;;;;;;;;;;24.59;40.00;99206.06;4958358;29;19934;-69
2021/05/11 07:45:46;;;;;;;;;;;;;;;24.68;39.86;99208.06;4958296;29;20400;-69
2021/05/11 08:02:03;;;;;;;;;;;;;;;25.20;39.94;99206.28;4958166;28;19926;-69
2021/05/11 08:04:36;;;;;;;;;;;;;;;25.25;40.70;99206.81;4957893;29;20009;-69
2021/05/11 08:15:20;;;;;;;;;;;;;;;25.39;40.67;99212.88;4957820;29;19934;-69
2021/05/11 08:17:54;;;;;;;;;;;;;;;25.45;40.47;99221.16;4957962;28;19997;-70
2021/05/11 08:23:25;;;;;;;;;;;;;;;25.55;40.81;99208.28;4957765;29;20346;-69
2021/05/11 08:28:31;;;;;;;;;;;;;;;25.60;40.13;99211.44;4957277;29;19933;-70
2021/05/11 08:31:03;;;;;;;;;;;;;;;25.53;39.54;99207.56;4957212;29;19926;-70
2021/05/11 08:33:34;;;;;;;;;;;;;;;25.64;39.81;99207.66;4957499;29;19957;-69
2021/05/11 08:36:06;;;;;;;;;;;;;;;25.72;39.34;99200.13;4957711;28;19933;-70
2021/05/11 08:38:35;;;;;;;;;;;;;;;25.74;38.32;99198.22;4957545;29;19927;-70
2021/05/11 08:41:07;;;;;;;;;;;;;;;25.71;38.44;99193.19;4957878;28;20013;-69
2021/05/11 08:43:37;;;;;;;;;;;;;;;25.84;39.04;99199.25;4957343;29;19926;-70
2021/05/11 08:46:07;;;;;;;;;;;;;;;25.85;38.07;99195.69;4957371;28;19961;-70
2021/05/11 08:48:36;;;;;;;;;;;;;;;25.84;37.62;99209.72;4956976;29;19932;-69
2021/05/11 08:51:09;;;;;;;;;;;;;;;25.92;38.00;99196.91;4957241;29;19927;-69
2021/05/11 09:04:42;;;;;;;;;;;;;;;26.31;40.05;99207.16;4955074;29;19927;-70
2021/05/11 09:07:39;;;;;;;;;;;;;;;26.33;39.50;99213.13;4954123;28;19962;-68
2021/05/11 09:23:53;;;;;;;;;;;;;;;26.54;38.11;99206.31;4954451;29;19932;-70
2021/05/11 09:26:38;;;;;;;;;;;;;;;26.61;39.03;99201.44;4954710;29;19933;-69
2021/05/11 09:29:23;;;;;;;;;;;;;;;26.68;39.28;99200.09;4956943;28;19958;-70
2021/05/11 09:31:59;;;;;;;;;;;;;;;26.63;37.94;99198.75;4956123;29;19927;-70
2021/05/11 09:34:37;;;;;;;;;;;;;;;26.68;37.95;99194.00;4956363;29;19926;-70
2021/05/11 09:45:54;;;;;;;;;;;;;;;27.03;39.38;99194.84;4956048;28;19989;-70
2021/05/11 09:52:01;;;;;;;;;;;;;;;27.00;38.33;99192.44;4934641;28;19931;-67
2021/05/11 09:54:34;;;;;;;;;;;;;;;27.08;38.51;99184.84;4956059;28;19926;-69
2021/05/11 09:57:13;;;;;;;;;;;;;;;27.16;38.57;99192.97;4956252;29;19933;-69
2021/05/11 10:00:25;;;;;;;;;;;;;;;27.16;38.44;99187.72;4956768;29;19926;-70
2021/05/11 10:41:41;;;;;;;;;;;;;;;27.50;37.70;99155.34;4959575;29;19927;-69
2021/05/11 10:46:57;;;;;;;;;;;;;;;27.56;38.15;99165.34;4959614;29;19926;-70
2021/05/11 10:49:27;;;;;;;;;;;;;;;27.59;37.39;99149.38;4959262;28;19927;-68
2021/05/11 10:52:08;;;;;;;;;;;;;;;27.71;38.54;99147.56;4958872;29;19927;-69
2021/05/11 10:54:38;;;;;;;;;;;;;;;27.70;36.35;99151.16;4959530;28;20347;-69
2021/05/11 10:57:21;;;;;;;;;;;;;;;27.54;38.08;99140.22;4959037;29;19926;-69
2021/05/11 11:03:12;;;;;;;;;;;;;;;27.75;37.33;99133.25;4955687;29;19961;-69
2021/05/11 11:05:45;;;;;;;;;;;;;;;28.02;36.82;99117.13;4959513;28;20403;-70
2021/05/11 11:08:27;;;;;;;;;;;;;;;28.05;36.66;99125.56;4959526;29;19974;-69
2021/05/11 11:11:09;;;;;;;;;;;;;;;27.98;36.99;99126.16;4958899;28;20025;-69
2021/05/11 11:13:39;;;;;;;;;;;;;;;28.02;37.05;99109.25;4958971;29;19935;-69
2021/05/11 11:16:11;;;;;;;;;;;;;;;28.10;36.93;99118.16;4959051;28;20026;-69
2021/05/11 11:18:44;;;;;;;;;;;;;;;28.12;37.22;99104.91;4958973;28;20376;-70
2021/05/11 11:21:34;;;;;;;;;;;;;;;28.23;37.64;99102.22;4959019;28;19949;-69
2021/05/11 11:24:02;;;;;;;;;;;;;;;28.27;38.44;99101.00;4958092;28;19934;-69
2021/05/11 11:26:36;;;;;;;;;;;;;;;28.53;37.97;99094.44;4959084;28;20345;-69
2021/05/11 11:29:09;;;;;;;;;;;;;;;28.70;38.62;99096.50;4959443;29;19926;-69
2021/05/11 11:31:39;;;;;;;;;;;;;;;28.57;37.10;99090.59;4972692;28;19977;-69
2021/05/11 11:34:15;;;;;;;;;;;;;;;28.76;37.65;99095.16;4958498;28;19938;-68
2021/05/11 11:36:46;;;;;;;;;;;;;;;28.86;35.56;99096.06;4958249;28;20003;-69
2021/05/11 11:39:18;;;;;;;;;;;;;;;28.85;36.35;99084.69;4957982;29;19978;-69
2021/05/11 11:41:47;;;;;;;;;;;;;;;28.89;36.49;99080.84;4958391;28;19981;-69
2021/05/11 11:44:16;;;;;;;;;;;;;;;28.89;36.45;99075.59;4958062;29;19930;-69
2021/05/11 11:46:50;;;;;;;;;;;;;;;28.79;34.75;99076.53;4958246;29;20288;-67
2021/05/11 11:49:19;;;;;;;;;;;;;;;28.73;35.69;99075.22;4958167;29;20033;-69
2021/05/11 11:51:57;;;;;;;;;;;;;;;28.85;36.28;99062.84;4957942;28;19927;-69
2021/05/11 11:54:32;;;;;;;;;;;;;;;28.80;37.12;99063.25;4958416;28;19993;-69
2021/05/11 12:00:09;;;;;;;;;;;;;;;28.71;34.80;99064.03;4941844;28;19926;-69
2021/05/11 12:02:58;;;;;;;;;;;;;;;28.86;33.60;99054.84;4958493;29;19926;-70
2021/05/11 12:05:31;;;;;;;;;;;;;;;29.01;34.09;99058.75;4961060;28;20382;-70
2021/05/11 12:08:05;;;;;;;;;;;;;;;29.04;35.54;99050.63;4967141;28;19954;-69
2021/05/11 12:10:36;;;;;;;;;;;;;;;28.99;35.92;99055.44;4964356;28;20009;-69
2021/05/11 12:13:13;;;;;;;;;;;;;;;28.97;35.94;99041.59;4968199;28;19949;-69
2021/05/11 12:15:42;;;;;;;;;;;;;;;28.87;36.40;99043.34;4977321;28;19926;-69
2021/05/11 12:18:15;;;;;;;;;;;;;;;28.94;36.25;99033.97;4977086;28;19930;-70
2021/05/11 12:21:01;;;;;;;;;;;;;;;28.99;35.82;99044.94;4977145;28;19930;-68
2021/05/11 12:23:34;;;;;;;;;;;;;;;28.98;35.73;99037.19;4977172;28;19934;-68
2021/05/11 12:26:04;;;;;;;;;;;;;;;28.94;35.55;99041.88;4976937;28;19933;-69
2021/05/11 12:28:36;;;;;;;;;;;;;;;28.84;35.12;99027.84;4975974;28;19964;-70
2021/05/11 12:31:08;;;;;;;;;;;;;;;28.80;35.00;99039.59;4976844;28;19933;-69
2021/05/11 12:33:42;;;;;;;;;;;;;;;28.83;34.91;99033.25;4977032;28;19976;-68
2021/05/11 12:36:18;;;;;;;;;;;;;;;28.91;34.72;99039.53;4976863;28;20280;-68
2021/05/11 12:38:49;;;;;;;;;;;;;;;29.06;34.44;99030.28;4976516;28;19965;-70
2021/05/11 12:41:34;;;;;;;;;;;;;;;29.29;34.99;99035.38;4976466;28;20033;-69
2021/05/11 12:44:03;;;;;;;;;;;;;;;29.19;34.51;99033.56;4975854;28;19977;-68
2021/05/11 12:46:32;;;;;;;;;;;;;;;28.89;33.19;99033.53;4976544;28;19926;-69
2021/05/11 12:49:05;;;;;;;;;;;;;;;28.73;34.92;99017.44;4976431;28;19927;-69
2021/05/11 12:51:37;;;;;;;;;;;;;;;28.72;36.00;99015.78;4976338;28;19961;-67
2021/05/11 12:54:16;;;;;;;;;;;;;;;28.74;35.39;99013.84;4976585;28;19927;-67
2021/05/11 12:56:52;;;;;;;;;;;;;;;28.76;35.37;99006.69;4976792;28;19933;-69
2021/05/11 12:59:40;;;;;;;;;;;;;;;28.90;35.76;98997.59;4976344;28;19926;-70
2021/05/11 13:02:19;;;;;;;;;;;;;;;28.70;35.78;98959.91;4976420;28;19952;-71
2021/05/11 13:05:04;;;;;;;;;;;;;;;28.78;35.64;98994.22;4975840;28;19930;-69
2021/05/11 13:26:23;;;;;;;;;;;;;;;28.64;35.35;98978.81;4975901;28;19926;-69
2021/05/11 13:28:55;;;;;;;;;;;;;;;28.65;35.65;98977.84;4975635;28;19926;-69
2021/05/11 13:31:31;;;;;;;;;;;;;;;28.64;35.58;98970.94;4975800;28;19926;-71
2021/05/11 13:34:09;;;;;;;;;;;;;;;28.64;35.80;98970.94;4975661;28;19933;-71
2021/05/11 13:36:40;;;;;;;;;;;;;;;28.53;34.19;98958.69;4976089;28;19968;-69
2021/05/11 13:39:09;;;;;;;;;;;;;;;28.65;33.80;98962.09;4975659;28;20095;-70
2021/05/11 13:41:42;;;;;;;;;;;;;;;28.61;34.53;98955.44;4975735;28;19961;-70
2021/05/11 13:44:15;;;;;;;;;;;;;;;28.62;35.46;98946.63;4975649;28;19926;-69
2021/05/11 13:46:43;;;;;;;;;;;;;;;28.59;34.43;98944.22;4990429;28;19926;-70
2021/05/11 13:49:14;;;;;;;;;;;;;;;28.47;32.91;98934.75;4975302;28;19981;-71
2021/05/11 13:51:44;;;;;;;;;;;;;;;28.52;33.67;98950.97;4975271;28;19970;-69
2021/05/11 13:54:17;;;;;;;;;;;;;;;28.51;33.58;98944.03;4990202;28;19961;-70
2021/05/11 13:57:01;;;;;;;;;;;;;;;28.43;32.67;98947.31;4975680;28;19926;-69
2021/05/11 14:02:29;;;;;;;;;;;;;;;28.55;32.87;98946.25;4975469;28;19926;-68
2021/05/11 14:04:58;;;;;;;;;;;;;;;28.49;32.19;98930.22;4975401;28;20041;-68
2021/05/11 14:07:31;;;;;;;;;;;;;;;28.45;32.55;98928.81;4975727;28;19965;-68
2021/05/11 14:10:00;;;;;;;;;;;;;;;28.46;34.02;98922.59;4990425;28;20295;-68
2021/05/11 14:12:28;;;;;;;;;;;;;;;28.54;33.77;98928.00;4975109;28;19985;-68
2021/05/11 14:14:57;;;;;;;;;;;;;;;28.51;32.16;98920.41;4975535;28;20265;-68
2021/05/11 14:17:29;;;;;;;;;;;;;;;28.52;32.23;98911.56;4975393;28;20013;-69
2021/05/11 14:19:57;;;;;;;;;;;;;;;28.54;33.77;98897.34;4975361;28;19926;-69
2021/05/11 14:22:31;;;;;;;;;;;;;;;28.49;32.88;98903.94;4975308;28;19926;-70
2021/05/11 14:25:03;;;;;;;;;;;;;;;28.47;31.97;98911.13;4989653;28;19926;-69
2021/05/11 14:27:31;;;;;;;;;;;;;;;28.35;31.51;98901.69;4975176;28;19926;-67
2021/05/11 14:29:59;;;;;;;;;;;;;;;28.44;32.92;98898.25;4975262;28;19937;-67
2021/05/11 14:32:27;;;;;;;;;;;;;;;28.45;33.96;98892.06;4974728;28;19926;-67
2021/05/11 14:34:56;;;;;;;;;;;;;;;28.41;32.10;98890.66;4974789;28;20308;-70
2021/05/11 14:37:24;;;;;;;;;;;;;;;28.34;31.18;98879.84;4974920;28;19926;-67
2021/05/11 14:39:53;;;;;;;;;;;;;;;28.44;31.80;98879.88;4975110;28;19926;-67
2021/05/11 14:42:21;;;;;;;;;;;;;;;28.46;32.51;98870.06;4974848;28;19980;-68
2021/05/11 14:44:52;;;;;;;;;;;;;;;28.39;32.31;98863.69;4974570;28;20005;-70
2021/05/11 14:47:21;;;;;;;;;;;;;;;28.26;32.28;98884.09;4974903;28;19926;-67
2021/05/11 14:49:49;;;;;;;;;;;;;;;28.29;30.70;98870.72;4974700;28;19930;-68
2021/05/11 14:52:17;;;;;;;;;;;;;;;28.30;31.54;98882.88;4974637;28;19973;-69
2021/05/11 14:54:45;;;;;;;;;;;;;;;28.27;31.75;98877.88;4974753;28;19926;-68
2021/05/11 14:57:16;;;;;;;;;;;;;;;28.20;31.71;98876.75;4974669;28;19965;-67
2021/05/11 14:59:44;;;;;;;;;;;;;;;28.15;30.81;98878.91;4974702;28;20007;-68
2021/05/11 15:02:13;;;;;;;;;;;;;;;28.07;30.34;98866.47;4974748;28;19957;-68
2021/05/11 15:04:43;;;;;;;;;;;;;;;27.98;31.05;98871.66;4974898;28;19926;-67
2021/05/11 15:07:11;;;;;;;;;;;;;;;27.80;30.74;98864.38;4977660;28;19962;-68
2021/05/11 15:09:40;;;;;;;;;;;;;;;27.72;31.49;98861.53;4978062;28;19925;-69
2021/05/11 15:12:08;;;;;;;;;;;;;;;27.59;32.36;98850.44;4993213;28;20366;-71
2021/05/11 15:14:37;;;;;;;;;;;;;;;27.43;32.87;98859.66;4978101;28;19932;-69
2021/05/11 15:17:58;;;;;;;;;;;;;;;27.24;32.61;98860.34;4978062;28;19989;-68
2021/05/11 15:19:59;;;;;;;;;;;;;;;27.13;31.25;98847.28;4977775;28;20292;-67
2021/05/11 15:22:28;;;;;;;;;;;;;;;27.08;31.93;98847.66;4978231;28;19930;-68
2021/05/11 15:24:57;;;;;;;;;;;;;;;26.93;32.48;98843.66;4977721;28;20372;-69
2021/05/11 15:27:26;;;;;;;;;;;;;;;26.82;32.75;98848.09;4977920;28;20049;-67
2021/05/11 15:29:55;;;;;;;;;;;;;;;26.76;32.91;98846.81;4977870;28;19926;-69
2021/05/11 15:32:34;;;;;;;;;;;;;;;26.72;33.07;98841.91;4977649;28;19934;-67
2021/05/11 15:35:03;;;;;;;;;;;;;;;26.65;33.50;98840.72;4977654;28;19965;-68
2021/05/11 15:37:31;;;;;;;;;;;;;;;26.61;33.49;98840.97;4976608;28;19927;-68
2021/05/11 15:39:59;;;;;;;;;;;;;;;26.51;33.92;98834.78;4977630;28;19930;-69
2021/05/11 15:42:28;;;;;;;;;;;;;;;26.40;34.40;98837.44;4977617;28;19933;-69
2021/05/11 15:44:58;;;;;;;;;;;;;;;26.27;34.27;98836.75;4992620;28;20020;-69
2021/05/11 15:47:27;;;;;;;;;;;;;;;26.20;34.12;98839.97;4977749;28;19969;-68
2021/05/11 15:49:55;;;;;;;;;;;;;;;26.14;34.70;98841.25;4977814;28;20384;-69
2021/05/11 15:52:27;;;;;;;;;;;;;;;26.05;34.87;98841.94;4977526;28;19926;-68
2021/05/11 15:54:55;;;;;;;;;;;;;;;26.00;34.47;98844.09;4977784;28;19961;-68
2021/05/11 15:57:33;;;;;;;;;;;;;;;25.96;34.92;98838.25;4977622;28;19930;-68
2021/05/11 16:00:03;;;;;;;;;;;;;;;25.93;35.03;98840.28;4977561;28;19926;-68
2021/05/11 16:02:41;;;;;;;;;;;;;;;25.87;35.18;98838.13;4977363;28;19934;-68
2021/05/11 16:05:10;;;;;;;;;;;;;;;25.79;35.89;98838.72;4977453;28;19930;-68
2021/05/11 16:07:39;;;;;;;;;;;;;;;25.73;36.42;98841.78;4977410;28;19965;-68
2021/05/11 16:10:08;;;;;;;;;;;;;;;25.69;37.00;98837.75;4977365;28;19969;-68
2021/05/11 16:12:40;;;;;;;;;;;;;;;25.63;37.44;98839.97;4977687;28;20276;-68
2021/05/11 16:15:13;;;;;;;;;;;;;;;25.60;37.95;98838.44;4977644;28;19972;-69
2021/05/11 16:17:45;;;;;;;;;;;;;;;25.59;38.56;98833.31;4977196;28;19926;-68
2021/05/11 16:20:20;;;;;;;;;;;;;;;25.58;39.49;98834.28;4977234;28;19933;-68
2021/05/11 16:22:52;;;;;;;;;;;;;;;25.57;40.09;98835.22;4977205;28;19926;-69
2021/05/11 16:25:22;;;;;;;;;;;;;;;25.53;40.52;98818.13;4976324;28;19932;-68
2021/05/11 16:27:54;;;;;;;;;;;;;;;25.50;40.91;98823.56;4977073;28;20292;-69